Tiempo atmosférico en la estación meteorológica de Ibias, San Antolin, Asturias (762 m.)



Fecha
DESCASC
Temp. máxima en grados centígrados (hora)
DESCASC
Temp. mínima en grados centígrados (hora)
DESCASC
Temp. media en grados centígrados
DESCASC
Racha de viento máxima en m/sg (hora)
DESCASC
Velocidad máxima media en intervalos de 10 minutos(hora)
DESCASC
Precipitaciones diarias en mm
DESCASC
Precipitaciones de 00:00 a 06:00 en mm
DESCASC
Precipitaciones de 06:00 a 12:00 en mm
DESCASC
Precipitaciones de 12:00 a 18:00 en mm
DESCASC
Precipitaciones de 18:00 a 24:00 en mm
DESCASC
05-04-2020 14.3 (12:00) 10.2 (23:59) 12.3 13.89 (04:40) 7.5 (01:30) 3.8 0 0 3.6 0.2
04-04-2020 18.2 (17:10) 8 (07:00) 13.1 12.22 (13:10) 6.67 (18:30) 0 0 0 0 0
03-04-2020 18.5 (17:50) 1.5 (08:00) 10 9.44 (13:40) 4.44 (13:30) 0 0 0 0 0
02-04-2020 12.7 (16:50) 5.1 (00:00) 8.9 8.89 (15:40) 6.11 (15:20) 0.2 0 0.2 0 0
01-04-2020 13.7 (16:00) 3.5 (00:00) 8.6 7.22 (16:30) 4.17 (14:30) 1 1 0 0 0
31-03-2020 8.3 (16:00) -0.2 (00:00) 4.1 14.72 (01:30) 9.44 (01:30) 0 0 0 0 0
30-03-2020 5.5 (12:10) 0.8 (00:00) 3.2 20.83 (05:10) 11.67 (05:10) 0 0 0 0 0
29-03-2020 13.5 (15:10) 4.1 (00:00) 8.8 16.11 (23:10) 9.72 (23:10) 0 0 0 0 0
28-03-2020 16.4 (15:10) 3.7 (00:00) 10 7.5 (17:50) 3.33 (17:20) 0 0 0 0 0
27-03-2020 14.4 (16:10) -0.1 (00:00) 7.1 7.78 (01:30) 5.56 (01:30) 0 0 0 0 0
26-03-2020 13.1 (15:20) 0.5 (00:00) 6.8 13.06 (22:10) 7.78 (22:10) 0 0 0 0 0
25-03-2020 18.7 (14:50) 5.7 (00:00) 12.2 6.94 (17:00) 3.61 (21:10) 0 0 0 0 0
24-03-2020 18.8 (15:30) 5.7 (00:00) 12.2 6.67 (18:10) 3.61 (23:20) 0 0 0 0 0
23-03-2020 15 (15:50) 5.4 (00:00) 10.2 7.78 (14:40) 3.61 (14:20) 0 0 0 0 0
22-03-2020 13.2 (14:40) 6.6 (07:20) 9.9 7.5 (19:50) 5 (19:50) 0.2 0.2 0 0 0
21-03-2020 15.7 (15:10) 7.8 (00:00) 11.8 7.5 (19:40) 4.17 (12:30) 6.4 0 0 5.2 1.2
20-03-2020 13.9 (16:00) 7.4 (00:00) 10.6 4.44 (15:10) 3.06 (17:10) 2 0.2 1.6 0.2 0
19-03-2020 20.5 (15:30) 9.5 (00:00) 15 11.39 (17:00) 8.33 (17:00) 15.6 0 0 10.8 4.8
18-03-2020 20.2 (16:10) 7.7 (00:00) 14 5 (14:30) 3.06 (17:40) 0 0 0 0 0
17-03-2020 15.6 (16:50) 2.9 (00:00) 9.3 14.72 (01:10) 8.89 (01:10) 0 0 0 0 0
16-03-2020 6.5 (13:10) 0 (00:00) 3.3 15.83 (21:20) 9.72 (21:20) 7.4 4.2 2.4 0.8 0
15-03-2020 12.2 (13:50) 0.2 (00:00) 6.2 13.89 (15:10) 11.11 (15:10) 9.8 0 0 6.6 3.2
14-03-2020 16.4 (16:20) 2.5 (00:00) 9.4 6.11 (14:20) 2.5 (13:10) 0 0 0 0 0
13-03-2020 10.4 (17:40) 4.5 (23:10) 7.4 8.61 (04:40) 5.83 (04:40) 0 0 0 0 0
12-03-2020 11.8 (14:20) 5.8 (00:00) 8.8 7.78 (16:30) 4.17 (18:40) 0 0 0 0 0
11-03-2020 21.6 (14:50) 9 (00:00) 15.3 11.94 (16:30) 7.22 (16:30) 0 0 0 0 0
10-03-2020 19.8 (15:20) 7.4 (00:00) 13.6 12.22 (13:40) 6.39 (13:50) 0 0 0 0 0

Gráficas

Temp. máximas Temp. mínimas Temp. medias Precipitaciones Rachas de viento máximas Velocidades máximas media en intervalos de 10 minutos

Datos horarios

Fecha y hora oficial Temperatura (ºC) Velocidad del viento (km/h) Dirección del viento Racha (km/h) Dirección de racha Precipitación (mm) Presión (hPa) Tendencia (hPa) Humedad (%)
2020-04-08 23:00:00 15.1 8 Norte 16 Norte 0 -- -- 73
2020-04-08 22:00:00 15.3 6 Norte 12 Norte 0 -- -- 74
2020-04-08 21:00:00 15.9 7 Noroeste 16 Noroeste 0 -- -- 72
2020-04-08 20:00:00 17.5 7 Noroeste 21 Noroeste 0 -- -- 68
2020-04-08 19:00:00 18.6 9 Norte 21 Norte 0 -- -- 62
2020-04-08 18:00:00 21.3 5 Norte 10 Este 0 -- -- 44
2020-04-08 17:00:00 20.3 8 Este 14 Nordeste 0 -- -- 46
2020-04-08 16:00:00 20.2 8 Este 17 Nordeste 0 -- -- 49
2020-04-08 15:00:00 19.5 11 Nordeste 18 Oeste 0 -- -- 57
2020-04-08 14:00:00 18 7 Norte 19 Norte 0 -- -- 67
2020-04-08 13:00:00 16.8 9 Oeste 17 Sudoeste 0 -- -- 72
2020-04-08 12:00:00 15.8 6 Nordeste 10 Nordeste 0 -- -- 77
2020-04-08 11:00:00 12.2 7 Oeste 11 Oeste 0 -- -- 93
2020-04-08 10:00:00 12.1 3 Sudeste 12 Este 0 -- -- 85
2020-04-08 09:00:00 9.3 0 Calma 8 Oeste 0 -- -- 98
2020-04-08 08:00:00 8.6 6 Oeste 12 Oeste 0 -- -- 98
2020-04-08 07:00:00 8.3 6 Oeste 12 Oeste 0 -- -- 98
2020-04-08 06:00:00 9.1 5 Oeste 7 Este 0 -- -- 95
2020-04-08 05:00:00 9.9 6 Sudeste 8 Este 0 -- -- 93
2020-04-08 04:00:00 10.1 0 Calma 8 Este 0 -- -- 94
2020-04-08 03:00:00 10.4 5 Este 9 Este 0 -- -- 95
2020-04-08 02:00:00 10.8 0 Calma 15 Sudeste 0 -- -- 93
2020-04-08 01:00:00 11.3 11 Sudeste 14 Este 0 -- -- 93
2020-04-08 00:00:00 11 5 Este 8 Este 0 -- -- 96
2020-04-07 23:00:00 11.1 3 Este 8 Este 0 -- -- 94
2020-04-07 22:00:00 11.9 3 Nordeste 5 Norte 0 -- -- 90
2020-04-07 21:00:00 12.3 3 Noroeste 6 Este 0 -- -- 87
2020-04-07 20:00:00 13.5 6 Noroeste 14 Oeste 0 -- -- 90
2020-04-07 19:00:00 14.1 4 Nordeste 9 Nordeste 0 -- -- 86
2020-04-07 18:00:00 14.1 0 Calma 19 Sudoeste 0.2 -- -- 88
2020-04-07 17:00:00 14.4 4 Sudeste 19 Sudoeste 0.8 -- -- 83
2020-04-07 16:00:00 14.7 20 Sudoeste 36 Sudoeste 0 -- -- 77
2020-04-07 15:00:00 17.2 5 Nordeste 19 Nordeste 0 -- -- 63
2020-04-07 14:00:00 17.3 8 Sur 16 Sudeste 0 -- -- 64
2020-04-07 13:00:00 15.9 5 Sudoeste 13 Oeste 0 -- -- 67
2020-04-07 12:00:00 15 7 Nordeste 14 Este 0 -- -- 78
2020-04-07 11:00:00 13 3 Este 9 Nordeste 0 -- -- 85
2020-04-07 10:00:00 9.9 0 Calma 5 Oeste 0 -- -- 97
2020-04-07 09:00:00 8.3 4 Oeste 6 Oeste 0 -- -- 97
2020-04-07 08:00:00 8.1 0 Calma 6 Oeste 0 -- -- 96
2020-04-07 07:00:00 8.1 2 Norte 9 Norte 0 -- -- 95
2020-04-07 06:00:00 7.9 2 Oeste 8 Norte 0 -- -- 96
2020-04-07 05:00:00 8.1 3 Oeste 6 Nordeste 0 -- -- 95
2020-04-07 04:00:00 8.4 3 Noroeste 8 Norte 0 -- -- 95
2020-04-07 03:00:00 8.5 5 Nordeste 6 Este 0 -- -- 94
2020-04-07 02:00:00 8.5 2 Nordeste 7 Nordeste 0 -- -- 93
2020-04-07 01:00:00 9 4 Nordeste 9 Sudeste 0 -- -- 93
2020-04-07 00:00:00 9.2 5 Este 11 Este 0 -- -- 92
2020-04-06 23:00:00 9.3 2 Nordeste 8 Norte 0 -- -- 90
2020-04-06 22:00:00 9.5 7 Nordeste 16 Nordeste 0 -- -- 88
2020-04-06 21:00:00 10 6 Norte 10 Norte 0 -- -- 90
2020-04-06 20:00:00 10.5 0 Calma 12 Nordeste 0 -- -- 90
2020-04-06 19:00:00 11.6 3 Nordeste 10 Este 0 -- -- 85
2020-04-06 18:00:00 12 6 Nordeste 12 Nordeste 0 -- -- 80
2020-04-06 17:00:00 12.3 5 Nordeste 10 Nordeste 0 -- -- 79
2020-04-06 16:00:00 12.2 2 Noroeste 15 Nordeste 0 -- -- 76
2020-04-06 15:00:00 11.8 6 Nordeste 10 Este 0 -- -- 81
2020-04-06 14:00:00 11.4 4 Este 14 Sudeste 0 -- -- 81
2020-04-06 13:00:00 11.6 5 Oeste 19 Nordeste 0 -- -- 81
2020-04-06 12:00:00 10.5 5 Nordeste 9 Nordeste 0 -- -- 87
2020-04-06 11:00:00 9 4 Este 8 Este 0 -- -- 95
2020-04-06 10:00:00 8.3 5 Oeste 18 Oeste 0 -- -- 98
2020-04-06 09:00:00 7.9 9 Oeste 21 Sudoeste 0.4 -- -- 99
2020-04-06 08:00:00 8 8 Oeste 16 Oeste 0.6 -- -- 99
2020-04-06 07:00:00 8.2 10 Oeste 17 Oeste 0.4 -- -- 98
2020-04-06 06:00:00 8.6 6 Oeste 9 Noroeste 0.2 -- -- 98
2020-04-06 05:00:00 8.8 4 Noroeste 22 Oeste 0.2 -- -- 98
2020-04-06 04:00:00 8.9 17 Sudoeste 26 Oeste 0.2 -- -- 98
2020-04-06 03:00:00 9.4 10 Oeste 14 Oeste 0.8 -- -- 97
2020-04-06 02:00:00 9.9 14 Sudoeste 19 Sudoeste 0 -- -- 96
2020-04-06 01:00:00 10.3 8 Sudoeste 19 Sudoeste 0.4 -- -- 95
2020-04-06 00:00:00 10.2 15 Sudoeste 24 Oeste 0.2 -- -- 94
2020-04-05 23:00:00 11.4 11 Oeste 17 Oeste 0 -- -- 86
2020-04-05 22:00:00 12.2 7 Sudoeste 23 Sudoeste 0 -- -- 76
2020-04-05 21:00:00 13 13 Sudoeste 31 Sudeste 0 -- -- 73
2020-04-05 20:00:00 13.6 15 Sur 36 Sur 0 -- -- 71
2020-04-05 19:00:00 13.4 22 Sur 39 Sur 0 -- -- 71
2020-04-05 18:00:00 12.2 15 Sur 36 Sur 0.8 -- -- 79
2020-04-05 17:00:00 11.7 24 Sur 39 Sur 1.2 -- -- 77
2020-04-05 16:00:00 11.7 24 Sur 36 Sur 1.6 -- -- 81
2020-04-05 15:00:00 12.8 16 Sur 39 Sudeste 0 -- -- 77
2020-04-05 14:00:00 13.7 24 Sur 49 Sudeste 0 -- -- 67
2020-04-05 13:00:00 13.8 25 Sudeste 48 Sudeste 0 -- -- 64
2020-04-05 12:00:00 14.3 24 Sur 42 Sudeste 0 -- -- 62
2020-04-05 11:00:00 13.7 15 Sur 40 Este 0 -- -- 64
2020-04-05 10:00:00 12.2 18 Sudeste 30 Sudeste 0 -- -- 67
2020-04-05 09:00:00 12.3 20 Sur 35 Sudeste 0 -- -- 65
2020-04-05 08:00:00 12.2 15 Sudeste 43 Sudeste 0 -- -- 64
2020-04-05 07:00:00 12.5 27 Sur 48 Sur 0 -- -- 62
2020-04-05 06:00:00 12.7 16 Sur 46 Sur 0 -- -- 59
2020-04-05 05:00:00 12.8 24 Sudeste 50 Sudeste 0 -- -- 57
2020-04-05 04:00:00 13.2 24 Sur 40 Sur 0 -- -- 55
2020-04-05 03:00:00 13.1 17 Sur 43 Sur 0 -- -- 53
2020-04-05 02:00:00 13.3 18 Sur 43 Sur 0 -- -- 51
2020-04-05 01:00:00 13.4 16 Sur 30 Sur 0 -- -- 48
2020-04-05 00:00:00 13.6 14 Sur 26 Sur 0 -- -- 49
2020-04-04 23:00:00 14.4 20 Sur 33 Sur 0 -- -- 48
2020-04-04 22:00:00 14.8 18 Sur 32 Sur 0 -- -- 44
2020-04-04 21:00:00 14.9 16 Sur 32 Sudeste 0 -- -- 42
2020-04-04 20:00:00 15.8 14 Sudeste 36 Sudeste 0 -- -- 39
2020-04-04 19:00:00 16.2 14 Sudeste 41 Sudeste 0 -- -- 41
2020-04-04 18:00:00 17.3 22 Sudeste 37 Sudeste 0 -- -- 37
2020-04-04 17:00:00 18 14 Este 42 Este 0 -- -- 37
2020-04-04 16:00:00 17.1 18 Sudeste 38 Sudeste 0 -- -- 34
2020-04-04 15:00:00 17.8 19 Sudeste 36 Este 0 -- -- 36
2020-04-04 14:00:00 16.9 22 Sudeste 44 Sudeste 0 -- -- 39
2020-04-04 13:00:00 16.3 15 Sudeste 32 Este 0 -- -- 42
2020-04-04 12:00:00 14.9 6 Norte 16 Sudoeste 0 -- -- 56
2020-04-04 11:00:00 13.6 7 Nordeste 11 Este 0 -- -- 52
2020-04-04 10:00:00 11.8 4 Nordeste 13 Este 0 -- -- 56
2020-04-04 09:00:00 9.6 10 Sudeste 16 Sudeste 0 -- -- 59
2020-04-04 08:00:00 8 12 Este 19 Este 0 -- -- 66
2020-04-04 07:00:00 8 13 Este 23 Este 0 -- -- 68
2020-04-04 06:00:00 8.4 17 Este 23 Sudeste 0 -- -- 67
2020-04-04 05:00:00 9 18 Sudeste 23 Sudeste 0 -- -- 65
2020-04-04 04:00:00 8.9 14 Este 19 Sudeste 0 -- -- 68
2020-04-04 03:00:00 9.6 7 Sudeste 16 Sudeste 0 -- -- 66
2020-04-04 02:00:00 10.3 7 Sudeste 14 Sudeste 0 -- -- 65
2020-04-04 01:00:00 10.5 11 Sudeste 19 Este 0 -- -- 67
2020-04-04 00:00:00 10.4 15 Este 20 Sudeste 0 -- -- 73
2020-04-03 23:00:00 10.5 3 Nordeste 7 Este 0 -- -- 78
2020-04-03 22:00:00 11.3 5 Norte 15 Noroeste 0 -- -- 73
2020-04-03 21:00:00 12.6 7 Noroeste 15 Norte 0 -- -- 65
2020-04-03 20:00:00 15.5 9 Noroeste 18 Oeste 0 -- -- 54
2020-04-03 19:00:00 18.1 11 Oeste 26 Oeste 0 -- -- 41
2020-04-03 18:00:00 18.5 12 Oeste 24 Oeste 0 -- -- 40
2020-04-03 17:00:00 18.1 10 Oeste 28 Oeste 0 -- -- 41
2020-04-03 16:00:00 17.7 14 Oeste 28 Oeste 0 -- -- 40
2020-04-03 15:00:00 16.2 8 Sudoeste 31 Oeste 0 -- -- 47
2020-04-03 14:00:00 15 16 Oeste 34 Oeste 0 -- -- 48
2020-04-03 13:00:00 11.2 6 Nordeste 13 Nordeste 0 -- -- 74
2020-04-03 12:00:00 6.9 5 Nordeste 11 Nordeste 0 -- -- 95
2020-04-03 11:00:00 3.8 5 Oeste 11 Oeste 0 -- -- 99
2020-04-03 10:00:00 2.3 2 Nordeste 8 Nordeste 0 -- -- 99
2020-04-03 09:00:00 1.8 3 Nordeste 7 Norte 0 -- -- 98
2020-04-03 08:00:00 1.5 0 Calma 4 Norte 0 -- -- 98
2020-04-03 07:00:00 2.1 4 Norte 10 Nordeste 0 -- -- 98
2020-04-03 06:00:00 2.3 3 Nordeste 6 Nordeste 0 -- -- 97
2020-04-03 05:00:00 2.8 4 Norte 9 Norte 0 -- -- 95
2020-04-03 04:00:00 3 5 Nordeste 9 Nordeste 0 -- -- 94
2020-04-03 03:00:00 3.3 7 Norte 18 Nordeste 0 -- -- 92
2020-04-03 02:00:00 4.1 12 Nordeste 18 Nordeste 0 -- -- 89
2020-04-03 01:00:00 4.4 12 Norte 23 Norte 0 -- -- 88
2020-04-03 00:00:00 5.1 7 Nordeste 23 Norte 0 -- -- 86
2020-04-02 23:00:00 6 11 Nordeste 27 Norte 0 -- -- 84
2020-04-02 22:00:00 6.2 12 Nordeste 23 Nordeste 0 -- -- 85
2020-04-02 21:00:00 6.8 11 Norte 24 Norte 0 -- -- 84
2020-04-02 20:00:00 8.8 10 Norte 23 Norte 0 -- -- 77
2020-04-02 19:00:00 10 5 Norte 26 Este 0 -- -- 75
2020-04-02 18:00:00 11.2 9 Norte 21 Norte 0 -- -- 70
2020-04-02 17:00:00 12.6 13 Nordeste 29 Nordeste 0 -- -- 63
2020-04-02 16:00:00 12.4 14 Nordeste 32 Nordeste 0 -- -- 70
2020-04-02 15:00:00 10.3 18 Nordeste 27 Nordeste 0 -- -- 77
2020-04-02 14:00:00 10.6 11 Nordeste 29 Nordeste 0 -- -- 75
2020-04-02 13:00:00 10 15 Nordeste 24 Nordeste 0 -- -- 82
2020-04-02 12:00:00 9.1 10 Nordeste 19 Nordeste 0 -- -- 87
2020-04-02 11:00:00 8.4 8 Nordeste 23 Nordeste 0 -- -- 90
2020-04-02 10:00:00 7.7 10 Nordeste 18 Norte 0 -- -- 95
2020-04-02 09:00:00 7.1 11 Norte 19 Nordeste 0 -- -- 98
2020-04-02 08:00:00 6.9 9 Norte 18 Nordeste 0.2 -- -- 98
2020-04-02 07:00:00 6.8 3 Norte 10 Norte 0 -- -- 97
2020-04-02 06:00:00 6.8 7 Norte 13 Norte 0 -- -- 96
2020-04-02 05:00:00 6.7 4 Noroeste 15 Norte 0 -- -- 95
2020-04-02 04:00:00 6.6 8 Norte 12 Norte 0 -- -- 96
2020-04-02 03:00:00 6.9 4 Norte 12 Norte 0 -- -- 96
2020-04-02 02:00:00 7.2 3 Nordeste 8 Nordeste 0 -- -- 95
2020-04-02 01:00:00 7.4 4 Norte 12 Noroeste 0 -- -- 93
2020-04-02 00:00:00 7.6 5 Noroeste 10 Oeste 0 -- -- 87
2020-04-01 23:00:00 7.8 2 Nordeste 13 Norte 0 -- -- 85
2020-04-01 22:00:00 7.9 2 Sudoeste 14 Noroeste 0 -- -- 85
2020-04-01 21:00:00 8.3 6 Norte 22 Nordeste 0 -- -- 83
2020-04-01 20:00:00 9.3 10 Norte 24 Norte 0 -- -- 78
2020-04-01 19:00:00 10.3 8 Nordeste 23 Nordeste 0 -- -- 73
2020-04-01 18:00:00 10.8 6 Norte 17 Norte 0 -- -- 72
2020-04-01 17:00:00 12 8 Norte 26 Nordeste 0 -- -- 67
2020-04-01 16:00:00 13.7 12 Nordeste 23 Norte 0 -- -- 62
2020-04-01 15:00:00 12.2 10 Nordeste 25 Norte 0 -- -- 64
2020-04-01 14:00:00 11.6 8 Nordeste 17 Este 0 -- -- 69
2020-04-01 13:00:00 10.2 6 Nordeste 13 Nordeste 0 -- -- 83
2020-04-01 12:00:00 8.8 6 Oeste 13 Oeste 0 -- -- 85
2020-04-01 11:00:00 6.8 4 Nordeste 10 Nordeste 0 -- -- 97
2020-04-01 10:00:00 4.6 0 Calma 6 Nordeste 0 -- -- 98
2020-04-01 09:00:00 3.6 4 Norte 10 Sudoeste 0 -- -- 96
2020-04-01 08:00:00 3.8 7 Oeste 9 Oeste 0 -- -- 96
2020-04-01 07:00:00 4.2 0 Calma 7 Nordeste 0 -- -- 94
2020-04-01 06:00:00 4.7 5 Sudoeste 13 Sudeste 0.8 -- -- 91
2020-04-01 05:00:00 4.5 4 Sudeste 11 Sudeste 0.2 -- -- 91
2020-04-01 04:00:00 4.4 0 Calma 9 Norte 0 -- -- 89
2020-04-01 03:00:00 4.2 4 Noroeste 9 Nordeste 0 -- -- 89
2020-04-01 02:00:00 4.5 0 Calma 9 Sur 0 -- -- 86
2020-04-01 01:00:00 4.4 4 Noroeste 9 Norte 0 -- -- 87
2020-04-01 00:00:00 4.4 3 Nordeste 11 Norte 0 -- -- 86
2020-03-31 23:00:00 4.3 10 Norte 19 Norte 0 -- -- 86
2020-03-31 22:00:00 4.2 8 Norte 20 Norte 0 -- -- 85
2020-03-31 21:00:00 4.3 7 Norte 21 Norte 0 -- -- 83
2020-03-31 20:00:00 5 8 Norte 23 Nordeste 0 -- -- 80
2020-03-31 19:00:00 5.5 15 Nordeste 30 Nordeste 0 -- -- 75
2020-03-31 18:00:00 6.5 17 Nordeste 37 Nordeste 0 -- -- 70
2020-03-31 17:00:00 7.9 19 Nordeste 38 Nordeste 0 -- -- 64
2020-03-31 16:00:00 8.3 15 Nordeste 35 Nordeste 0 -- -- 61
2020-03-31 15:00:00 6.3 20 Nordeste 36 Norte 0 -- -- 65
2020-03-31 14:00:00 5.9 12 Nordeste 41 Nordeste 0 -- -- 66
2020-03-31 13:00:00 6.7 23 Nordeste 40 Nordeste 0 -- -- 62
2020-03-31 12:00:00 3.7 21 Nordeste 35 Nordeste 0 -- -- 68
2020-03-31 11:00:00 2.4 23 Nordeste 37 Nordeste 0 -- -- 70
2020-03-31 10:00:00 1.3 22 Nordeste 36 Nordeste 0 -- -- 72
2020-03-31 09:00:00 0.8 19 Nordeste 37 Nordeste 0 -- -- 77
2020-03-31 08:00:00 0.3 9 Nordeste 37 Nordeste 0 -- -- 80
2020-03-31 07:00:00 0.1 17 Nordeste 31 Nordeste 0 -- -- 79
2020-03-31 06:00:00 -0.2 16 Nordeste 36 Nordeste 0 -- -- 79
2020-03-31 05:00:00 0.2 15 Nordeste 37 Nordeste 0 -- -- 81
2020-03-31 04:00:00 0.5 17 Nordeste 48 Nordeste 0 -- -- 81
2020-03-31 03:00:00 0.4 27 Nordeste 49 Nordeste 0 -- -- 80
2020-03-31 02:00:00 0.5 26 Nordeste 53 Nordeste 0 -- -- 82
2020-03-31 01:00:00 0.7 32 Nordeste 50 Nordeste 0 -- -- 81
2020-03-31 00:00:00 0.8 24 Nordeste 45 Nordeste 0 -- -- 80
2020-03-30 23:00:00 0.9 22 Nordeste 44 Nordeste 0 -- -- 78
2020-03-30 22:00:00 0.9 17 Nordeste 35 Nordeste 0 -- -- 76
2020-03-30 21:00:00 0.8 20 Nordeste 39 Nordeste 0 -- -- 73
2020-03-30 20:00:00 1.3 21 Nordeste 59 Nordeste 0 -- -- 72
2020-03-30 19:00:00 1.6 21 Nordeste 47 Nordeste 0 -- -- 75
2020-03-30 18:00:00 2.7 31 Nordeste 51 Nordeste 0 -- -- 65
2020-03-30 17:00:00 2 28 Nordeste 55 Nordeste 0 -- -- 68
2020-03-30 16:00:00 3.2 26 Nordeste 57 Nordeste 0 -- -- 68
2020-03-30 15:00:00 3.3 29 Nordeste 63 Nordeste 0 -- -- 66
2020-03-30 14:00:00 3.3 29 Nordeste 66 Nordeste 0 -- -- 67
2020-03-30 13:00:00 3.6 29 Nordeste 51 Nordeste 0 -- -- 66
2020-03-30 12:00:00 5.4 31 Nordeste 57 Nordeste 0 -- -- 61
2020-03-30 11:00:00 3.3 35 Nordeste 59 Nordeste 0 -- -- 67
2020-03-30 10:00:00 4.3 31 Nordeste 48 Nordeste 0 -- -- 64
2020-03-30 09:00:00 2.1 29 Nordeste 64 Nordeste 0 -- -- 71
2020-03-30 08:00:00 2.1 27 Nordeste 63 Norte 0 -- -- 76
2020-03-30 07:00:00 2.1 31 Nordeste 59 Nordeste 0 -- -- 71
2020-03-30 06:00:00 2.5 23 Nordeste 75 Nordeste 0 -- -- 69
2020-03-30 05:00:00 2.8 36 Nordeste 70 Nordeste 0 -- -- 77
2020-03-30 04:00:00 3.2 40 Nordeste 67 Nordeste 0 -- -- 80
2020-03-30 03:00:00 3.6 32 Nordeste 58 Nordeste 0 -- -- 83
2020-03-30 02:00:00 3.7 32 Nordeste 60 Nordeste 0 -- -- 87
2020-03-30 01:00:00 4.2 31 Nordeste 55 Nordeste 0 -- -- 85
2020-03-30 00:00:00 4.7 28 Nordeste 58 Nordeste 0 -- -- 87
2020-03-29 23:00:00 5.5 30 Nordeste 53 Nordeste 0 -- -- 87
2020-03-29 22:00:00 6.5 22 Nordeste 44 Nordeste 0 -- -- 82
2020-03-29 21:00:00 7 21 Nordeste 45 Nordeste 0 -- -- 74
2020-03-29 20:00:00 8.8 22 Nordeste 41 Nordeste 0 -- -- 67
2020-03-29 19:00:00 9.3 21 Nordeste 40 Nordeste 0 -- -- 67
2020-03-29 18:00:00 11.2 20 Nordeste 35 Nordeste 0 -- -- 64
2020-03-29 17:00:00 12.1 20 Nordeste 33 Nordeste 0 -- -- 57
2020-03-29 16:00:00 12.9 21 Nordeste 32 Nordeste 0 -- -- 58
2020-03-29 15:00:00 13.3 13 Nordeste 27 Nordeste 0 -- -- 60
2020-03-29 14:00:00 12.7 11 Nordeste 26 Nordeste 0 -- -- 60
2020-03-29 13:00:00 11.4 12 Nordeste 21 Norte 0 -- -- 71
2020-03-29 12:00:00 8.5 7 Este 15 Este 0 -- -- 82
2020-03-29 11:00:00 5.3 3 Norte 9 Norte 0 -- -- 97
2020-03-29 10:00:00 4.2 5 Este 7 Nordeste 0 -- -- 98
2020-03-29 09:00:00 4.2 2 Nordeste 8 Norte 0 -- -- 98
2020-03-29 08:00:00 4.1 4 Norte 9 Norte 0 -- -- 98
2020-03-29 07:00:00 4.3 5 Norte 8 Norte 0 -- -- 98
2020-03-29 06:00:00 4.6 4 Nordeste 8 Nordeste 0 -- -- 98
2020-03-29 05:00:00 4.8 4 Nordeste 8 Nordeste 0 -- -- 97
2020-03-29 03:00:00 4.9 0 Calma 11 Norte 0 -- -- 96
2020-03-29 01:00:00 5.1 8 Norte 12 Norte 0 -- -- 93
2020-03-29 00:00:00 5.6 5 Norte 8 Norte 0 -- -- 90
2020-03-28 23:00:00 6.6 3 Nordeste 6 Norte 0 -- -- 85
2020-03-28 22:00:00 7.3 5 Nordeste 12 Norte 0 -- -- 80
2020-03-28 21:00:00 8.1 6 Nordeste 12 Norte 0 -- -- 75
2020-03-28 20:00:00 9.4 7 Norte 13 Noroeste 0 -- -- 68
2020-03-28 19:00:00 11 7 Norte 19 Norte 0 -- -- 60
2020-03-28 18:00:00 12.9 8 Noroeste 27 Noroeste 0 -- -- 50
2020-03-28 17:00:00 14 8 Norte 21 Norte 0 -- -- 44
2020-03-28 16:00:00 15.6 7 Norte 22 Norte 0 -- -- 39
2020-03-28 15:00:00 16.3 5 Norte 19 Norte 0 -- -- 35
2020-03-28 14:00:00 15.6 8 Norte 19 Norte 0 -- -- 35
2020-03-28 13:00:00 14.8 10 Norte 24 Norte 0 -- -- 35
2020-03-28 12:00:00 13.6 6 Nordeste 14 Este 0 -- -- 48
2020-03-28 11:00:00 11.2 3 Nordeste 8 Nordeste 0 -- -- 57
2020-03-28 10:00:00 7.9 0 Calma 8 Sudeste 0 -- -- 64
2020-03-28 09:00:00 6.3 3 Este 10 Sudeste 0 -- -- 59
2020-03-28 08:00:00 4.2 4 Sudoeste 10 Sudeste 0 -- -- 60
2020-03-28 07:00:00 4.2 5 Sudeste 9 Sudeste 0 -- -- 55
2020-03-28 06:00:00 4.5 2 Sudeste 15 Sudeste 0 -- -- 55
2020-03-28 05:00:00 4.9 7 Sudeste 13 Sudeste 0 -- -- 53
2020-03-28 04:00:00 4.4 3 Sur 15 Sudeste 0 -- -- 58
2020-03-28 03:00:00 3.9 7 Este 11 Este 0 -- -- 67
2020-03-28 02:00:00 4.8 0 Calma 8 Este 0 -- -- 68
2020-03-28 01:00:00 5.3 3 Este 9 Nordeste 0 -- -- 70
2020-03-28 00:00:00 5.1 6 Este 8 Este 0 -- -- 77
2020-03-27 23:00:00 5.5 0 Calma 9 Norte 0 -- -- 76
2020-03-27 22:00:00 5.8 7 Norte 13 Norte 0 -- -- 72
2020-03-27 21:00:00 6.6 8 Norte 17 Norte 0 -- -- 70
2020-03-27 20:00:00 7.6 7 Noroeste 14 Norte 0 -- -- 67
2020-03-27 19:00:00 10.2 8 Noroeste 23 Norte 0 -- -- 59
2020-03-27 18:00:00 13.2 4 Nordeste 24 Sur 0 -- -- 42
2020-03-27 17:00:00 14.1 5 Nordeste 19 Sudoeste 0 -- -- 27
2020-03-27 16:00:00 14.1 10 Norte 23 Nordeste 0 -- -- 34
2020-03-27 15:00:00 13.4 8 Nordeste 22 Norte 0 -- -- 41
2020-03-27 14:00:00 13.3 9 Nordeste 21 Norte 0 -- -- 34
2020-03-27 13:00:00 11.3 9 Nordeste 21 Nordeste 0 -- -- 40
2020-03-27 12:00:00 9.4 9 Este 19 Nordeste 0 -- -- 45
2020-03-27 11:00:00 7.1 6 Nordeste 12 Nordeste 0 -- -- 61
2020-03-27 10:00:00 5.2 6 Nordeste 17 Nordeste 0 -- -- 62
2020-03-27 09:00:00 3.7 7 Nordeste 15 Norte 0 -- -- 72
2020-03-27 08:00:00 0.8 6 Norte 14 Norte 0 -- -- 87
2020-03-27 07:00:00 -0.1 9 Norte 18 Norte 0 -- -- 88
2020-03-27 06:00:00 0.4 12 Norte 18 Norte 0 -- -- 87
2020-03-27 05:00:00 0.9 12 Nordeste 20 Nordeste 0 -- -- 85
2020-03-27 04:00:00 1.3 12 Nordeste 22 Norte 0 -- -- 86
2020-03-27 03:00:00 1.7 14 Nordeste 25 Nordeste 0 -- -- 84
2020-03-27 02:00:00 2.5 15 Nordeste 28 Nordeste 0 -- -- 82
2020-03-27 01:00:00 2.6 10 Nordeste 23 Nordeste 0 -- -- 80
2020-03-27 00:00:00 3.1 17 Nordeste 32 Nordeste 0 -- -- 77
2020-03-26 23:00:00 3.6 22 Nordeste 47 Nordeste 0 -- -- 74
2020-03-26 22:00:00 4.1 23 Nordeste 46 Nordeste 0 -- -- 76
2020-03-26 21:00:00 4.5 19 Nordeste 42 Nordeste 0 -- -- 76
2020-03-26 20:00:00 5.4 19 Norte 27 Norte 0 -- -- 76
2020-03-26 19:00:00 7.9 7 Norte 18 Norte 0 -- -- 67
2020-03-26 18:00:00 9.8 9 Norte 26 Noroeste 0 -- -- 62
2020-03-26 17:00:00 11.5 6 Norte 21 Norte 0 -- -- 57
2020-03-26 16:00:00 12.6 8 Norte 22 Norte 0 -- -- 50
2020-03-26 15:00:00 12.7 11 Norte 23 Norte 0 -- -- 49
2020-03-26 14:00:00 11.9 9 Nordeste 22 Nordeste 0 -- -- 54
2020-03-26 13:00:00 10.7 6 Nordeste 29 Noroeste 0 -- -- 56
2020-03-26 12:00:00 8.6 9 Nordeste 26 Norte 0 -- -- 70
2020-03-26 11:00:00 5.5 7 Noroeste 18 Noroeste 0 -- -- 84
2020-03-26 10:00:00 2.5 3 Oeste 14 Noroeste 0 -- -- 99
2020-03-26 09:00:00 1.1 0 Calma 10 Oeste 0 -- -- 99
2020-03-26 08:00:00 0.7 5 Sudoeste 9 Oeste 0 -- -- 98
2020-03-26 07:00:00 0.6 0 Calma 6 Nordeste 0 -- -- 98
2020-03-26 06:00:00 0.8 4 Norte 11 Noroeste 0 -- -- 97
2020-03-26 05:00:00 1.1 5 Nordeste 6 Nordeste 0 -- -- 93
2020-03-26 04:00:00 3.1 0 Calma 7 Norte 0 -- -- 84
2020-03-26 03:00:00 4.1 3 Sudoeste 6 Nordeste 0 -- -- 79
2020-03-26 02:00:00 4.6 4 Nordeste 6 Nordeste 0 -- -- 79
2020-03-26 01:00:00 5.4 0 Calma 6 Nordeste 0 -- -- 77
2020-03-26 00:00:00 5.7 2 Nordeste 5 Norte 0 -- -- 75
2020-03-25 23:00:00 6.4 0 Calma 6 Nordeste 0 -- -- 72
2020-03-25 22:00:00 8 3 Noroeste 22 Norte 0 -- -- 63
2020-03-25 21:00:00 9.3 10 Norte 20 Norte 0 -- -- 52
2020-03-25 20:00:00 10.1 5 Sudoeste 17 Noroeste 0 -- -- 55
2020-03-25 19:00:00 13.6 9 Noroeste 22 Noroeste 0 -- -- 44
2020-03-25 18:00:00 15.3 11 Noroeste 24 Noroeste 0 -- -- 39
2020-03-25 17:00:00 16.3 10 Norte 25 Noroeste 0 -- -- 40
2020-03-25 16:00:00 17.3 9 Nordeste 23 Norte 0 -- -- 45
2020-03-25 15:00:00 18.6 6 Nordeste 22 Nordeste 0 -- -- 44
2020-03-25 14:00:00 17.6 7 Norte 19 Nordeste 0 -- -- 43
2020-03-25 13:00:00 17 6 Sudoeste 24 Norte 0 -- -- 55
2020-03-25 12:00:00 15.4 8 Oeste 16 Noroeste 0 -- -- 60
2020-03-25 11:00:00 14.3 3 Sudoeste 8 Sur 0 -- -- 62
2020-03-25 10:00:00 12.3 2 Este 7 Nordeste 0 -- -- 73
2020-03-25 09:00:00 10.2 2 Este 6 Nordeste 0 -- -- 78
2020-03-25 08:00:00 7.3 2 Nordeste 7 Nordeste 0 -- -- 86
2020-03-25 07:00:00 7.5 0 Calma 8 Oeste 0 -- -- 88
2020-03-25 06:00:00 8 0 Calma 9 Oeste 0 -- -- 82
2020-03-25 05:00:00 8.1 0 Calma 11 Sudeste 0 -- -- 79
2020-03-25 04:00:00 8.7 0 Calma 4 Norte 0 -- -- 83
2020-03-25 03:00:00 8.6 0 Calma 5 Nordeste 0 -- -- 83
2020-03-25 02:00:00 8.7 3 Este 13 Este 0 -- -- 85
2020-03-25 01:00:00 9.6 6 Este 12 Este 0 -- -- 82
2020-03-25 00:00:00 10.5 6 Este 17 Sudeste 0 -- -- 79
2020-03-24 23:00:00 11.1 10 Sudeste 15 Sudeste 0 -- -- 77
2020-03-24 22:00:00 11.2 4 Nordeste 9 Norte 0 -- -- 76
2020-03-24 21:00:00 11.6 8 Norte 14 Norte 0 -- -- 73
2020-03-24 20:00:00 12.3 11 Norte 22 Nordeste 0 -- -- 72
2020-03-24 19:00:00 14.7 8 Norte 24 Noroeste 0 -- -- 67
2020-03-24 18:00:00 14.7 12 Noroeste 20 Norte 0 -- -- 67
2020-03-24 17:00:00 17.5 4 Noroeste 17 Este 0 -- -- 47
2020-03-24 16:00:00 18.1 5 Nordeste 13 Nordeste 0 -- -- 45
2020-03-24 15:00:00 18.1 6 Nordeste 15 Nordeste 0 -- -- 48
2020-03-24 14:00:00 16.6 11 Nordeste 21 Norte 0 -- -- 52
2020-03-24 13:00:00 15.6 5 Noroeste 14 Oeste 0 -- -- 57
2020-03-24 12:00:00 14.1 5 Nordeste 14 Este 0 -- -- 61
2020-03-24 11:00:00 13 4 Este 12 Este 0 -- -- 66
2020-03-24 10:00:00 11.1 9 Este 14 Este 0 -- -- 72
2020-03-24 09:00:00 9.1 5 Nordeste 9 Norte 0 -- -- 87
2020-03-24 08:00:00 6.3 0 Calma 9 Nordeste 0 -- -- 93
2020-03-24 07:00:00 6.3 2 Este 10 Nordeste 0 -- -- 93
2020-03-24 06:00:00 6.6 6 Norte 8 Norte 0 -- -- 92
2020-03-24 05:00:00 5.8 5 Nordeste 8 Nordeste 0 -- -- 97
2020-03-24 04:00:00 5.9 0 Calma 9 Norte 0 -- -- 97
2020-03-24 03:00:00 6 5 Norte 10 Noroeste 0 -- -- 95
2020-03-24 02:00:00 6.4 8 Norte 10 Norte 0 -- -- 96
2020-03-24 01:00:00 6.6 7 Norte 9 Norte 0 -- -- 96
2020-03-24 00:00:00 6.6 6 Norte 12 Norte 0 -- -- 96
2020-03-23 23:00:00 6.7 7 Norte 14 Norte 0 -- -- 95
2020-03-23 22:00:00 6.9 7 Norte 14 Norte 0 -- -- 94
2020-03-23 21:00:00 7.4 8 Norte 16 Norte 0 -- -- 92
2020-03-23 20:00:00 8.2 7 Norte 19 Noroeste 0 -- -- 89
2020-03-23 19:00:00 9.8 9 Noroeste 19 Noroeste 0 -- -- 83
2020-03-23 18:00:00 11.7 8 Norte 23 Noroeste 0 -- -- 76
2020-03-23 17:00:00 13.6 9 Norte 18 Noroeste 0 -- -- 69
2020-03-23 16:00:00 15 8 Nordeste 19 Nordeste 0 -- -- 64
2020-03-23 15:00:00 14.3 7 Nordeste 28 Nordeste 0 -- -- 62
2020-03-23 14:00:00 13.9 6 Nordeste 21 Nordeste 0 -- -- 66
2020-03-23 13:00:00 12.5 10 Nordeste 21 Norte 0 -- -- 71
2020-03-23 12:00:00 12 9 Nordeste 17 Este 0 -- -- 71
2020-03-23 11:00:00 9.8 5 Este 13 Norte 0 -- -- 81
2020-03-23 10:00:00 7.4 3 Este 8 Nordeste 0 -- -- 99
2020-03-23 09:00:00 5.9 0 Calma 9 Noroeste 0 -- -- 99
2020-03-23 08:00:00 5.7 3 Norte 8 Norte 0 -- -- 99
2020-03-23 07:00:00 5.8 2 Nordeste 8 Nordeste 0 -- -- 99
2020-03-23 06:00:00 5.6 5 Norte 9 Norte 0 -- -- 98
2020-03-23 05:00:00 5.9 4 Norte 10 Norte 0 -- -- 97
2020-03-23 04:00:00 5.9 6 Norte 12 Norte 0 -- -- 96
2020-03-23 03:00:00 6.4 8 Norte 12 Norte 0 -- -- 94
2020-03-23 02:00:00 6.6 8 Norte 13 Norte 0 -- -- 93
2020-03-23 01:00:00 7.1 11 Norte 21 Nordeste 0 -- -- 92
2020-03-23 00:00:00 7.5 11 Norte 20 Norte 0 -- -- 91
2020-03-22 23:00:00 7.8 12 Nordeste 22 Nordeste 0 -- -- 90
2020-03-22 22:00:00 7.9 6 Norte 26 Nordeste 0 -- -- 89
2020-03-22 21:00:00 8 17 Nordeste 27 Nordeste 0 -- -- 90
2020-03-22 20:00:00 8.4 12 Nordeste 27 Norte 0 -- -- 91
2020-03-22 19:00:00 10.3 13 Nordeste 24 Nordeste 0 -- -- 83
2020-03-22 18:00:00 11.6 13 Nordeste 24 Nordeste 0 -- -- 80
2020-03-22 17:00:00 12.1 15 Nordeste 26 Nordeste 0 -- -- 76
2020-03-22 16:00:00 12.2 9 Este 21 Nordeste 0 -- -- 78
2020-03-22 15:00:00 12.9 5 Norte 20 Norte 0 -- -- 80
2020-03-22 14:00:00 11.9 9 Nordeste 15 Nordeste 0 -- -- 87
2020-03-22 13:00:00 10.8 6 Este 15 Este 0 -- -- 90
2020-03-22 12:00:00 9.1 6 Este 12 Nordeste 0 -- -- 99
2020-03-22 11:00:00 8 5 Nordeste 9 Nordeste 0 -- -- 100
2020-03-22 10:00:00 7.2 6 Norte 10 Norte 0 -- -- 100
2020-03-22 09:00:00 6.8 4 Norte 10 Norte 0 -- -- 100
2020-03-22 08:00:00 6.7 3 Noroeste 6 Nordeste 0 -- -- 100
2020-03-22 07:00:00 6.7 3 Norte 8 Norte 0 -- -- 99
2020-03-22 06:00:00 6.9 0 Calma 8 Noroeste 0 -- -- 99
2020-03-22 05:00:00 6.9 4 Oeste 7 Oeste 0.2 -- -- 99
2020-03-22 04:00:00 7 2 Nordeste 6 Norte 0 -- -- 99
2020-03-22 03:00:00 7.4 4 Este 6 Nordeste 0 -- -- 98
2020-03-22 02:00:00 7.7 3 Nordeste 5 Nordeste 0 -- -- 98
2020-03-22 01:00:00 7.8 2 Nordeste 8 Noroeste 0 -- -- 96
2020-03-22 00:00:00 8.3 2 Nordeste 6 Norte 0 -- -- 94
2020-03-21 23:00:00 8.7 0 Calma 8 Nordeste 0 -- -- 91
2020-03-21 22:00:00 8.8 6 Oeste 11 Norte 0 -- -- 89
2020-03-21 21:00:00 9.6 3 Nordeste 16 Oeste 0 -- -- 85
2020-03-21 20:00:00 10.4 9 Oeste 27 Nordeste 1.2 -- -- 84
2020-03-21 19:00:00 11.2 5 Nordeste 10 Norte 0 -- -- 85
2020-03-21 18:00:00 11.4 0 Calma 19 Oeste 0 -- -- 89
2020-03-21 17:00:00 11.1 5 Noroeste 23 Este 4.6 -- -- 89
2020-03-21 16:00:00 14.4 7 Noroeste 21 Oeste 0.6 -- -- 70
2020-03-21 15:00:00 15.6 13 Sudoeste 22 Oeste 0 -- -- 65
2020-03-21 14:00:00 15.4 8 Oeste 18 Oeste 0 -- -- 64
2020-03-21 13:00:00 13.9 13 Oeste 25 Oeste 0 -- -- 69
2020-03-21 12:00:00 13 9 Oeste 14 Sudoeste 0 -- -- 77
2020-03-21 11:00:00 11.3 3 Nordeste 9 Noroeste 0 -- -- 80
2020-03-21 10:00:00 10.4 6 Nordeste 20 Sudeste 0 -- -- 86
2020-03-21 09:00:00 8.4 4 Nordeste 15 Este 0 -- -- 93
2020-03-21 08:00:00 8.3 5 Noroeste 13 Nordeste 0 -- -- 89
2020-03-21 07:00:00 7.9 4 Nordeste 9 Nordeste 0 -- -- 94
2020-03-21 06:00:00 8.9 5 Norte 11 Norte 0 -- -- 88
2020-03-21 05:00:00 8.6 4 Nordeste 18 Nordeste 0 -- -- 96
2020-03-21 04:00:00 9 6 Este 12 Este 0 -- -- 97
2020-03-21 03:00:00 8.6 4 Sudeste 7 Sudeste 0 -- -- 98
2020-03-21 02:00:00 8.6 4 Nordeste 13 Noroeste 0 -- -- 97
2020-03-21 01:00:00 8.3 9 Noroeste 13 Noroeste 0 -- -- 96
2020-03-21 00:00:00 8.8 5 Norte 12 Norte 0 -- -- 94
2020-03-20 23:00:00 9.9 4 Nordeste 6 Nordeste 0 -- -- 95
2020-03-20 22:00:00 10.3 5 Nordeste 8 Norte 0 -- -- 92
2020-03-20 21:00:00 10.5 6 Oeste 11 Oeste 0 -- -- 90
2020-03-20 20:00:00 11.7 4 Oeste 11 Sur 0 -- -- 81
2020-03-20 19:00:00 12.1 7 Sudeste 15 Sudeste 0 -- -- 85
2020-03-20 18:00:00 12.4 10 Sudeste 16 Sur 0.2 -- -- 75
2020-03-20 17:00:00 13.3 9 Sur 15 Sur 0 -- -- 73
2020-03-20 16:00:00 13.9 4 Sudoeste 16 Oeste 0 -- -- 72
2020-03-20 15:00:00 13.4 4 Noroeste 11 Nordeste 0 -- -- 88
2020-03-20 14:00:00 12.8 4 Este 10 Oeste 0 -- -- 91
2020-03-20 13:00:00 11.2 3 Norte 10 Sudoeste 0 -- -- 97
2020-03-20 12:00:00 10.1 0 Calma 9 Noroeste 0 -- -- 98
2020-03-20 11:00:00 9.3 3 Oeste 7 Oeste 0.4 -- -- 97
2020-03-20 10:00:00 9 0 Calma 4 Nordeste 0.6 -- -- 98
2020-03-20 09:00:00 8.1 2 Sudoeste 12 Oeste 0.2 -- -- 99
2020-03-20 08:00:00 7.8 7 Oeste 12 Oeste 0.4 -- -- 99
2020-03-20 07:00:00 7.6 5 Norte 10 Oeste 0 -- -- 99
2020-03-20 06:00:00 7.6 0 Calma 8 Norte 0.2 -- -- 98
2020-03-20 05:00:00 7.5 3 Noroeste 8 Norte 0 -- -- 98
2020-03-20 04:00:00 7.8 4 Norte 8 Oeste 0 -- -- 97
2020-03-20 03:00:00 8.5 3 Oeste 8 Sur 0 -- -- 94
2020-03-20 02:00:00 9 0 Calma 5 Sudeste 0 -- -- 95
2020-03-20 01:00:00 9.1 3 Este 6 Este 0 -- -- 95
2020-03-20 00:00:00 9.6 0 Calma 5 Este 0 -- -- 94
2020-03-19 23:00:00 9.7 4 Nordeste 14 Oeste 0 -- -- 93
2020-03-19 22:00:00 9.7 10 Oeste 12 Oeste 0 -- -- 95
2020-03-19 21:00:00 10.6 0 Calma 8 Norte 0 -- -- 89
2020-03-19 20:00:00 10.4 6 Este 10 Sudeste 2 -- -- 93
2020-03-19 19:00:00 10.9 9 Nordeste 23 Sudoeste 2.8 -- -- 90
2020-03-19 18:00:00 11.4 4 Norte 38 Este 6.6 -- -- 82
2020-03-19 17:00:00 13.7 30 Este 41 Este 4.2 -- -- 70
2020-03-19 16:00:00 20.2 9 Oeste 17 Oeste 0 -- -- 47
2020-03-19 15:00:00 19.9 6 Nordeste 23 Oeste 0 -- -- 45
2020-03-19 14:00:00 19.2 13 Sudoeste 27 Oeste 0 -- -- 48
2020-03-19 13:00:00 18.9 12 Oeste 18 Oeste 0 -- -- 50
2020-03-19 12:00:00 17.5 8 Oeste 14 Oeste 0 -- -- 57
2020-03-19 11:00:00 15.3 7 Oeste 11 Oeste 0 -- -- 63
2020-03-19 10:00:00 13.3 4 Sur 10 Sudeste 0 -- -- 71
2020-03-19 09:00:00 11.5 4 Sur 14 Sudeste 0 -- -- 67
2020-03-19 08:00:00 10.8 4 Sudeste 10 Sudeste 0 -- -- 68
2020-03-19 07:00:00 10.5 2 Sudoeste 17 Este 0 -- -- 72
2020-03-19 06:00:00 10.8 12 Este 17 Sudeste 0 -- -- 70
2020-03-19 05:00:00 11.2 2 Sudoeste 8 Sur 0 -- -- 73
2020-03-19 04:00:00 10.7 4 Sudoeste 13 Este 0 -- -- 76
2020-03-19 03:00:00 11 9 Este 14 Sudeste 0 -- -- 77
2020-03-19 02:00:00 10.5 6 Nordeste 9 Nordeste 0 -- -- 82
2020-03-19 01:00:00 11.2 4 Este 9 Nordeste 0 -- -- 80
2020-03-19 00:00:00 11.8 3 Nordeste 8 Este 0 -- -- 78
2020-03-18 23:00:00 12.4 0 Calma 5 Nordeste 0 -- -- 76
2020-03-18 22:00:00 12.6 4 Este 6 Este 0 -- -- 74
2020-03-18 21:00:00 13.1 4 Este 8 Sudeste 0 -- -- 72
2020-03-18 20:00:00 14.4 4 Este 8 Norte 0 -- -- 68
2020-03-18 19:00:00 16.5 4 Norte 14 Noroeste 0 -- -- 60
2020-03-18 18:00:00 18.4 10 Noroeste 17 Norte 0 -- -- 51
2020-03-18 17:00:00 20.2 6 Norte 12 Nordeste 0 -- -- 43
2020-03-18 16:00:00 20 7 Nordeste 15 Nordeste 0 -- -- 44
2020-03-18 15:00:00 19.4 6 Nordeste 18 Oeste 0 -- -- 52
2020-03-18 14:00:00 18.2 8 Este 13 Nordeste 0 -- -- 54
2020-03-18 13:00:00 17.7 4 Nordeste 13 Oeste 0 -- -- 58
2020-03-18 12:00:00 15.4 7 Oeste 11 Sudoeste 0 -- -- 63
2020-03-18 11:00:00 13.6 4 Sur 9 Sur 0 -- -- 73
2020-03-18 10:00:00 11.4 2 Sur 11 Sudeste 0 -- -- 79
2020-03-18 09:00:00 9.5 3 Este 10 Este 0 -- -- 83
2020-03-18 08:00:00 7.8 4 Este 10 Este 0 -- -- 85
2020-03-18 07:00:00 8.2 6 Este 11 Este 0 -- -- 82
2020-03-18 06:00:00 8.3 4 Sur 14 Sudeste 0 -- -- 82
2020-03-18 05:00:00 9.1 7 Sudeste 12 Sudeste 0 -- -- 78
2020-03-18 04:00:00 8.7 3 Oeste 8 Este 0 -- -- 80
2020-03-18 03:00:00 9.2 6 Este 12 Sudeste 0 -- -- 79
2020-03-18 02:00:00 9 4 Este 8 Este 0 -- -- 82
2020-03-18 01:00:00 8.8 0 Calma 8 Este 0 -- -- 85
2020-03-18 00:00:00 8.8 3 Nordeste 14 Este 0 -- -- 86
2020-03-17 23:00:00 9.1 9 Este 17 Este 0 -- -- 87
2020-03-17 22:00:00 9.2 12 Sudeste 17 Sudeste 0 -- -- 88
2020-03-17 21:00:00 9.5 5 Este 9 Este 0 -- -- 86
2020-03-17 20:00:00 10.9 0 Calma 10 Norte 0 -- -- 79
2020-03-17 19:00:00 12.7 6 Norte 13 Norte 0 -- -- 71
2020-03-17 18:00:00 14.8 5 Noroeste 16 Norte 0 -- -- 66
2020-03-17 17:00:00 15.4 9 Norte 21 Nordeste 0 -- -- 61
2020-03-17 16:00:00 15.2 9 Nordeste 19 Norte 0 -- -- 62
2020-03-17 15:00:00 15 8 Norte 23 Nordeste 0 -- -- 62
2020-03-17 14:00:00 13.9 10 Nordeste 25 Nordeste 0 -- -- 62
2020-03-17 13:00:00 12.5 12 Nordeste 19 Nordeste 0 -- -- 68
2020-03-17 12:00:00 10.6 9 Nordeste 17 Norte 0 -- -- 71
2020-03-17 11:00:00 8.5 6 Nordeste 13 Este 0 -- -- 77
2020-03-17 10:00:00 6.9 4 Este 25 Sudeste 0 -- -- 80
2020-03-17 09:00:00 4.7 18 Este 28 Sudeste 0 -- -- 83
2020-03-17 08:00:00 3.5 17 Este 33 Nordeste 0 -- -- 88
2020-03-17 07:00:00 3 16 Nordeste 25 Nordeste 0 -- -- 91
2020-03-17 06:00:00 3.3 19 Nordeste 31 Nordeste 0 -- -- 89
2020-03-17 05:00:00 2.9 19 Nordeste 33 Nordeste 0 -- -- 89
2020-03-17 04:00:00 3.2 19 Nordeste 43 Este 0 -- -- 87
2020-03-17 03:00:00 3.4 19 Nordeste 36 Este 0 -- -- 84
2020-03-17 02:00:00 3.4 21 Nordeste 53 Nordeste 0 -- -- 84
2020-03-17 01:00:00 3.5 21 Nordeste 41 Nordeste 0 -- -- 82
2020-03-17 00:00:00 3.8 21 Nordeste 51 Este 0 -- -- 78
2020-03-16 23:00:00 3.7 20 Nordeste 49 Nordeste 0 -- -- 80
2020-03-16 22:00:00 3.6 24 Nordeste 57 Nordeste 0 -- -- 81
2020-03-16 21:00:00 3.6 27 Nordeste 45 Nordeste 0 -- -- 80
2020-03-16 20:00:00 3.7 21 Nordeste 49 Nordeste 0 -- -- 87
2020-03-16 19:00:00 4.6 25 Nordeste 44 Nordeste 0 -- -- 82
2020-03-16 18:00:00 5.4 23 Nordeste 47 Nordeste 0 -- -- 81
2020-03-16 17:00:00 5.6 18 Nordeste 50 Nordeste 0 -- -- 86
2020-03-16 16:00:00 5.3 28 Nordeste 48 Nordeste 0.2 -- -- 89
2020-03-16 15:00:00 5.1 12 Nordeste 29 Nordeste 0.2 -- -- 91
2020-03-16 14:00:00 4.7 13 Nordeste 42 Nordeste 0.4 -- -- 95
2020-03-16 13:00:00 6.2 21 Nordeste 50 Nordeste 0 -- -- 91
2020-03-16 12:00:00 5.2 30 Nordeste 49 Nordeste 0 -- -- 90
2020-03-16 11:00:00 3.7 13 Nordeste 32 Nordeste 0.6 -- -- 97
2020-03-16 10:00:00 3 12 Nordeste 31 Nordeste 0.4 -- -- 96
2020-03-16 09:00:00 1.8 15 Nordeste 35 Nordeste 0.6 -- -- 97
2020-03-16 08:00:00 1.6 12 Norte 26 Norte 0.4 -- -- 96
2020-03-16 07:00:00 1.3 8 Norte 24 Nordeste 0.4 -- -- 96
2020-03-16 06:00:00 1.1 8 Noroeste 22 Nordeste 0 -- -- 97
2020-03-16 05:00:00 0.8 7 Norte 17 Noroeste 0.4 -- -- 98
2020-03-16 04:00:00 0.6 6 Noroeste 24 Norte 2.4 -- -- 99
2020-03-16 03:00:00 0.3 3 Oeste 13 Oeste 0.4 -- -- 99
2020-03-16 02:00:00 0.3 7 Oeste 16 Oeste 0.2 -- -- 98
2020-03-16 01:00:00 0.2 3 Oeste 7 Sudoeste 0.8 -- -- 99
2020-03-16 00:00:00 0.3 3 Oeste 8 Sudoeste 0.6 -- -- 98
2020-03-15 23:00:00 0.3 3 Oeste 6 Oeste 1 -- -- 98
2020-03-15 22:00:00 0.4 8 Oeste 11 Oeste 0 -- -- 98
2020-03-15 21:00:00 0.5 6 Noroeste 10 Oeste 0 -- -- 97
2020-03-15 20:00:00 0.6 6 Este 8 Sudeste 0.6 -- -- 98
2020-03-15 19:00:00 0.3 3 Sudoeste 7 Nordeste 1 -- -- 97
2020-03-15 18:00:00 0.8 0 Calma 19 Oeste 1.8 -- -- 97
2020-03-15 17:00:00 1.3 10 Oeste 36 Oeste 4.6 -- -- 95
2020-03-15 16:00:00 4.1 28 Oeste 50 Oeste 0.2 -- -- 93
2020-03-15 15:00:00 8 38 Oeste 49 Oeste 0 -- -- 79
2020-03-15 14:00:00 12.2 21 Sudoeste 45 Sudoeste 0 -- -- 55
2020-03-15 13:00:00 11.9 19 Sur 42 Sudoeste 0 -- -- 55
2020-03-15 12:00:00 9.4 22 Sur 40 Sudoeste 0 -- -- 68
2020-03-15 11:00:00 7.6 22 Sudoeste 43 Oeste 0 -- -- 80
2020-03-15 10:00:00 8.2 20 Oeste 35 Oeste 0 -- -- 77
2020-03-15 09:00:00 7.3 17 Sudoeste 31 Sudoeste 0 -- -- 76
2020-03-15 08:00:00 5.9 17 Sudoeste 27 Sudoeste 0 -- -- 79
2020-03-15 07:00:00 5.8 17 Sudoeste 27 Sudoeste 0 -- -- 68
2020-03-15 06:00:00 6.5 13 Oeste 18 Oeste 0 -- -- 54
2020-03-15 05:00:00 6.3 10 Oeste 19 Oeste 0 -- -- 61
2020-03-15 04:00:00 9 4 Sur 13 Sur 0 -- -- 53
2020-03-15 03:00:00 8.8 0 Calma 8 Sudeste 0 -- -- 58
2020-03-15 02:00:00 8.3 2 Sur 10 Sudeste 0 -- -- 67
2020-03-15 01:00:00 8 0 Calma 10 Nordeste 0 -- -- 70
2020-03-15 00:00:00 8.5 3 Este 7 Este 0 -- -- 69
2020-03-14 23:00:00 9.4 0 Calma 8 Este 0 -- -- 69
2020-03-14 22:00:00 9.9 6 Este 8 Este 0 -- -- 68
2020-03-14 21:00:00 11.1 4 Nordeste 5 Nordeste 0 -- -- 68
2020-03-14 20:00:00 12.3 4 Sudoeste 6 Noroeste 0 -- -- 60
2020-03-14 19:00:00 15.5 4 Oeste 10 Noroeste 0 -- -- 46
2020-03-14 18:00:00 16.2 7 Norte 10 Norte 0 -- -- 43
2020-03-14 17:00:00 16.4 8 Norte 11 Norte 0 -- -- 42
2020-03-14 16:00:00 16.3 7 Nordeste 14 Nordeste 0 -- -- 46
2020-03-14 15:00:00 15 5 Nordeste 22 Oeste 0 -- -- 47
2020-03-14 14:00:00 12.8 5 Este 13 Nordeste 0 -- -- 59
2020-03-14 13:00:00 10.7 8 Nordeste 13 Nordeste 0 -- -- 69
2020-03-14 12:00:00 7.9 6 Nordeste 13 Este 0 -- -- 78
2020-03-14 11:00:00 4.2 3 Sur 11 Este 0 -- -- 93
2020-03-14 10:00:00 3.3 4 Norte 10 Nordeste 0 -- -- 96
2020-03-14 09:00:00 2.6 3 Nordeste 10 Este 0 -- -- 97
2020-03-14 08:00:00 2.7 3 Este 7 Nordeste 0 -- -- 97
2020-03-14 07:00:00 3.1 0 Calma 9 Nordeste 0 -- -- 98
2020-03-14 06:00:00 3.5 3 Nordeste 6 Este 0 -- -- 98
2020-03-14 05:00:00 3.7 0 Calma 7 Este 0 -- -- 98
2020-03-14 04:00:00 4.1 5 Este 9 Este 0 -- -- 97
2020-03-14 03:00:00 4.5 3 Nordeste 8 Este 0 -- -- 96
2020-03-14 02:00:00 4.7 4 Norte 11 Norte 0 -- -- 96
2020-03-14 01:00:00 5 4 Norte 14 Noroeste 0 -- -- 96
2020-03-14 00:00:00 5.1 6 Norte 13 Noroeste 0 -- -- 97
2020-03-13 23:00:00 4.8 6 Norte 10 Norte 0 -- -- 94
2020-03-13 22:00:00 5.4 6 Noroeste 18 Noroeste 0 -- -- 92
2020-03-13 21:00:00 5.9 4 Nordeste 21 Norte 0 -- -- 91
2020-03-13 20:00:00 7.1 12 Norte 19 Noroeste 0 -- -- 86
2020-03-13 19:00:00 9.4 6 Noroeste 10 Norte 0 -- -- 76
2020-03-13 18:00:00 10.4 4 Norte 18 Nordeste 0 -- -- 74
2020-03-13 17:00:00 9.8 8 Nordeste 14 Nordeste 0 -- -- 77
2020-03-13 16:00:00 9.6 6 Nordeste 17 Nordeste 0 -- -- 77
2020-03-13 15:00:00 9.5 6 Este 17 Nordeste 0 -- -- 79
2020-03-13 14:00:00 8.8 7 Nordeste 17 Nordeste 0 -- -- 80
2020-03-13 13:00:00 8.3 7 Nordeste 19 Norte 0 -- -- 82
2020-03-13 12:00:00 7.8 4 Nordeste 14 Nordeste 0 -- -- 85
2020-03-13 11:00:00 7.1 10 Nordeste 15 Norte 0 -- -- 88
2020-03-13 10:00:00 6.4 6 Nordeste 12 Norte 0 -- -- 92
2020-03-13 09:00:00 5.5 5 Norte 13 Norte 0 -- -- 93
2020-03-13 08:00:00 5.2 10 Nordeste 20 Nordeste 0 -- -- 93
2020-03-13 07:00:00 5.4 14 Nordeste 26 Nordeste 0 -- -- 91
2020-03-13 06:00:00 5.3 10 Nordeste 28 Nordeste 0 -- -- 92
2020-03-13 05:00:00 5.3 19 Nordeste 31 Nordeste 0 -- -- 92
2020-03-13 04:00:00 5.4 14 Nordeste 24 Nordeste 0 -- -- 92
2020-03-13 03:00:00 5.5 11 Nordeste 29 Nordeste 0 -- -- 91
2020-03-13 02:00:00 5.5 10 Nordeste 25 Nordeste 0 -- -- 91
2020-03-13 01:00:00 5.7 15 Nordeste 23 Nordeste 0 -- -- 92
2020-03-13 00:00:00 5.8 11 Nordeste 22 Norte 0 -- -- 92
2020-03-12 23:00:00 6 10 Nordeste 17 Norte 0 -- -- 92
2020-03-12 22:00:00 6.2 10 Nordeste 18 Nordeste 0 -- -- 92
2020-03-12 21:00:00 6.2 8 Nordeste 18 Norte 0 -- -- 93
2020-03-12 20:00:00 6.8 4 Nordeste 22 Norte 0 -- -- 92
2020-03-12 19:00:00 7.5 12 Nordeste 27 Nordeste 0 -- -- 92
2020-03-12 18:00:00 8.2 7 Norte 26 Norte 0 -- -- 90
2020-03-12 17:00:00 8.7 10 Nordeste 28 Norte 0 -- -- 89
2020-03-12 16:00:00 9.4 6 Nordeste 19 Norte 0 -- -- 86
2020-03-12 15:00:00 9.7 6 Norte 18 Oeste 0 -- -- 84
2020-03-12 14:00:00 11.5 6 Nordeste 16 Nordeste 0 -- -- 82
2020-03-12 13:00:00 10.9 8 Nordeste 21 Nordeste 0 -- -- 85
2020-03-12 12:00:00 10.7 6 Nordeste 19 Norte 0 -- -- 89
2020-03-12 11:00:00 8.8 3 Este 13 Norte 0 -- -- 94
2020-03-12 10:00:00 8.6 3 Nordeste 13 Noroeste 0 -- -- 94
2020-03-12 09:00:00 8.5 6 Noroeste 14 Noroeste 0 -- -- 94
2020-03-12 08:00:00 8.8 0 Calma 9 Norte 0 -- -- 95
2020-03-12 07:00:00 9 0 Calma 9 Noroeste 0 -- -- 96
2020-03-12 06:00:00 9.3 0 Calma 12 Oeste 0 -- -- 97
2020-03-12 05:00:00 9.4 8 Oeste 10 Oeste 0 -- -- 96
2020-03-12 04:00:00 10.1 0 Calma 3 Sudoeste 0 -- -- 95
2020-03-12 03:00:00 10.3 0 Calma 4 Oeste 0 -- -- 94
2020-03-12 02:00:00 10.2 4 Oeste 8 Noroeste 0 -- -- 94
2020-03-12 01:00:00 10.6 4 Noroeste 7 Noroeste 0 -- -- 92
2020-03-12 00:00:00 10.6 4 Oeste 7 Oeste 0 -- -- 93
2020-03-11 23:00:00 10.7 0 Calma 11 Oeste 0 -- -- 93
2020-03-11 22:00:00 11 9 Oeste 12 Sudoeste 0 -- -- 89
2020-03-11 21:00:00 12.4 8 Oeste 17 Sudoeste 0 -- -- 83
2020-03-11 20:00:00 14.6 16 Oeste 23 Oeste 0 -- -- 73
2020-03-11 19:00:00 18.9 8 Oeste 22 Oeste 0 -- -- 47
2020-03-11 18:00:00 20 14 Sudoeste 36 Sudoeste 0 -- -- 46
2020-03-11 17:00:00 20.7 17 Sudoeste 43 Oeste 0 -- -- 42
2020-03-11 16:00:00 21.3 18 Sudoeste 33 Oeste 0 -- -- 43
2020-03-11 15:00:00 21.4 21 Sudoeste 38 Oeste 0 -- -- 45
2020-03-11 14:00:00 19.9 9 Sudoeste 22 Oeste 0 -- -- 50
2020-03-11 13:00:00 18.9 11 Oeste 20 Oeste 0 -- -- 51
2020-03-11 12:00:00 16.9 5 Nordeste 12 Oeste 0 -- -- 58
2020-03-11 11:00:00 14.6 4 Sur 11 Sudoeste 0 -- -- 67
2020-03-11 10:00:00 13 4 Sudoeste 9 Este 0 -- -- 74
2020-03-11 09:00:00 10.8 6 Nordeste 11 Este 0 -- -- 73
2020-03-11 08:00:00 9.1 0 Calma 5 Este 0 -- -- 78
2020-03-11 07:00:00 9.2 0 Calma 11 Este 0 -- -- 79
2020-03-11 06:00:00 9.5 4 Este 10 Este 0 -- -- 77
2020-03-11 05:00:00 9.3 4 Este 6 Este 0 -- -- 79
2020-03-11 04:00:00 9.8 0 Calma 6 Oeste 0 -- -- 80
2020-03-11 03:00:00 10.2 4 Oeste 9 Sudeste 0 -- -- 77
2020-03-11 02:00:00 10.7 9 Este 15 Este 0 -- -- 76
2020-03-11 01:00:00 10.6 2 Sudeste 12 Este 0 -- -- 84
2020-03-11 00:00:00 9.7 7 Sudoeste 15 Sudoeste 0 -- -- 90
2020-03-10 23:00:00 10.2 14 Sudoeste 17 Sudoeste 0 -- -- 88
2020-03-10 22:00:00 11.5 10 Sudoeste 18 Sudoeste 0 -- -- 79
2020-03-10 21:00:00 12.7 9 Sudoeste 16 Sudoeste 0 -- -- 73
2020-03-10 20:00:00 13.1 12 Sudoeste 18 Sudoeste 0 -- -- 67
2020-03-10 19:00:00 16.8 13 Sudoeste 27 Sudoeste 0 -- -- 50
2020-03-10 18:00:00 18.6 12 Sudoeste 29 Oeste 0 -- -- 43
2020-03-10 17:00:00 19.2 19 Sudoeste 40 Oeste 0 -- -- 41
2020-03-10 16:00:00 19.7 19 Sudoeste 39 Oeste 0 -- -- 37
2020-03-10 15:00:00 19.5 18 Sudoeste 37 Sudoeste 0 -- -- 37
2020-03-10 14:00:00 18.8 21 Oeste 44 Sudoeste 0 -- -- 38
2020-03-10 13:00:00 18.5 17 Sudoeste 39 Sudoeste 0 -- -- 23
2020-03-10 12:00:00 16.5 9 Sudoeste 18 Oeste 0 -- -- 22
2020-03-10 11:00:00 14.8 4 Este 16 Oeste 0 -- -- 36
2020-03-10 10:00:00 11.3 6 Nordeste 14 Noroeste 0 -- -- 39
2020-03-10 09:00:00 8.2 2 Oeste 15 Oeste 0 -- -- 49
2020-03-10 08:00:00 8.4 4 Sur 14 Sudeste 0 -- -- 49
2020-03-10 07:00:00 9.3 11 Sudeste 16 Sudeste 0 -- -- 34
2020-03-10 06:00:00 8.6 0 Calma 8 Este 0 -- -- 49
2020-03-10 05:00:00 8 0 Calma 10 Este 0 -- -- 54
2020-03-10 04:00:00 7.9 3 Oeste 8 Este 0 -- -- 60
2020-03-10 03:00:00 8 5 Sudeste 11 Sudeste 0 -- -- 66
2020-03-10 02:00:00 7.9 0 Calma 7 Este 0 -- -- 70
2020-03-10 01:00:00 8.1 0 Calma 7 Este 0 -- -- 70
2020-03-10 00:00:00 8.2 5 Este 10 Sudeste 0 -- -- 70